sensor_id;sensor_type;location;lat;lon;timestamp;pressure;altitude;pressure_sealevel;temperature;humidity
48892;BME280;50130;52.150;5.236;2022-11-04T00:01:15;99805.0;;;13.0;98.54
48892;BME280;50130;52.150;5.236;2022-11-04T00:04:28;99810.0;;;12.96;98.67
48892;BME280;50130;52.150;5.236;2022-11-04T00:06:06;99814.0;;;13.06;98.32
48892;BME280;50130;52.150;5.236;2022-11-04T00:08:48;99814.0;;;13.0;98.51
48892;BME280;50130;52.150;5.236;2022-11-04T00:12:23;99816.0;;;12.97;98.24
48892;BME280;50130;52.150;5.236;2022-11-04T00:14:00;99821.0;;;13.02;98.1
48892;BME280;50130;52.150;5.236;2022-11-04T00:18:29;99825.0;;;12.98;98.29
48892;BME280;50130;52.150;5.236;2022-11-04T00:29:24;99849.0;;;13.07;98.2
48892;BME280;50130;52.150;5.236;2022-11-04T00:33:24;99846.0;;;12.99;98.08
48892;BME280;50130;52.150;5.236;2022-11-04T00:35:01;99850.0;;;12.81;98.18
48892;BME280;50130;52.150;5.236;2022-11-04T00:38:13;99852.0;;;12.8;98.06
48892;BME280;50130;52.150;5.236;2022-11-04T00:39:49;99859.0;;;12.9;97.84
48892;BME280;50130;52.150;5.236;2022-11-04T00:41:25;99859.0;;;12.92;97.69
48892;BME280;50130;52.150;5.236;2022-11-04T00:43:01;99860.0;;;12.94;97.11
48892;BME280;50130;52.150;5.236;2022-11-04T00:46:13;99869.0;;;12.81;97.62
48892;BME280;50130;52.150;5.236;2022-11-04T00:47:50;99869.0;;;12.87;97.53
48892;BME280;50130;52.150;5.236;2022-11-04T00:49:26;99874.0;;;12.9;97.2
48892;BME280;50130;52.150;5.236;2022-11-04T00:52:38;99876.0;;;12.69;98.13
48892;BME280;50130;52.150;5.236;2022-11-04T00:54:14;99880.0;;;12.72;97.74
48892;BME280;50130;52.150;5.236;2022-11-04T00:55:51;99881.0;;;12.77;97.35
48892;BME280;50130;52.150;5.236;2022-11-04T00:59:04;99887.0;;;12.85;97.36
48892;BME280;50130;52.150;5.236;2022-11-04T01:00:41;99892.0;;;12.8;97.48
48892;BME280;50130;52.150;5.236;2022-11-04T01:02:17;99893.0;;;12.75;97.63
48892;BME280;50130;52.150;5.236;2022-11-04T01:05:31;99891.0;;;12.73;97.92
48892;BME280;50130;52.150;5.236;2022-11-04T01:07:07;99894.0;;;12.64;98.47
48892;BME280;50130;52.150;5.236;2022-11-04T01:08:44;99897.0;;;12.66;98.42
48892;BME280;50130;52.150;5.236;2022-11-04T01:10:21;99891.0;;;12.58;98.76
48892;BME280;50130;52.150;5.236;2022-11-04T01:13:33;99895.0;;;12.58;99.28
48892;BME280;50130;52.150;5.236;2022-11-04T01:15:10;99906.0;;;12.56;98.87
48892;BME280;50130;52.150;5.236;2022-11-04T01:16:48;99905.0;;;12.47;98.94
48892;BME280;50130;52.150;5.236;2022-11-04T01:20:00;99908.0;;;12.46;98.49
48892;BME280;50130;52.150;5.236;2022-11-04T01:21:37;99910.0;;;12.43;98.88
48892;BME280;50130;52.150;5.236;2022-11-04T01:23:13;99911.0;;;12.35;99.14
48892;BME280;50130;52.150;5.236;2022-11-04T01:26:26;99920.0;;;12.36;99.2
48892;BME280;50130;52.150;5.236;2022-11-04T01:28:03;99924.0;;;12.4;99.03
48892;BME280;50130;52.150;5.236;2022-11-04T01:29:39;99932.0;;;12.39;98.97
48892;BME280;50130;52.150;5.236;2022-11-04T01:31:18;99937.0;;;12.45;98.6
48892;BME280;50130;52.150;5.236;2022-11-04T01:34:34;99941.0;;;12.46;98.61
48892;BME280;50130;52.150;5.236;2022-11-04T01:36:10;99947.0;;;12.53;98.55
48892;BME280;50130;52.150;5.236;2022-11-04T01:37:47;99953.0;;;12.5;98.61
48892;BME280;50130;52.150;5.236;2022-11-04T01:41:00;99955.0;;;12.45;98.9
48892;BME280;50130;52.150;5.236;2022-11-04T01:42:37;99953.0;;;12.57;98.29
48892;BME280;50130;52.150;5.236;2022-11-04T01:45:19;99955.0;;;12.49;98.21
48892;BME280;50130;52.150;5.236;2022-11-04T01:46:56;99955.0;;;12.37;98.41
48892;BME280;50130;52.150;5.236;2022-11-04T01:48:33;99955.0;;;12.45;97.94
48892;BME280;50130;52.150;5.236;2022-11-04T01:50:13;99960.0;;;12.39;97.94
48892;BME280;50130;52.150;5.236;2022-11-04T01:53:38;99960.0;;;12.27;97.5
48892;BME280;50130;52.150;5.236;2022-11-04T01:55:19;99957.0;;;12.3;97.4
48892;BME280;50130;52.150;5.236;2022-11-04T01:57:01;99966.0;;;12.31;96.94
48892;BME280;50130;52.150;5.236;2022-11-04T01:58:44;99967.0;;;12.36;96.3
48892;BME280;50130;52.150;5.236;2022-11-04T02:02:00;99973.0;;;12.37;96.0
48892;BME280;50130;52.150;5.236;2022-11-04T02:03:40;99968.0;;;12.28;96.32
48892;BME280;50130;52.150;5.236;2022-11-04T02:05:21;99969.0;;;12.14;96.64
48892;BME280;50130;52.150;5.236;2022-11-04T02:06:59;99980.0;;;12.19;96.1
48892;BME280;50130;52.150;5.236;2022-11-04T02:10:17;99982.0;;;12.15;96.5
48892;BME280;50130;52.150;5.236;2022-11-04T02:13:01;99980.0;;;12.09;96.86
48892;BME280;50130;52.150;5.236;2022-11-04T02:14:40;99982.0;;;12.14;96.61
48892;BME280;50130;52.150;5.236;2022-11-04T02:16:23;99980.0;;;12.07;97.53
48892;BME280;50130;52.150;5.236;2022-11-04T02:18:15;99984.0;;;12.03;97.85
48892;BME280;50130;52.150;5.236;2022-11-04T02:20:15;99992.0;;;12.1;97.08
48892;BME280;50130;52.150;5.236;2022-11-04T02:22:19;99998.0;;;12.06;97.27
48892;BME280;50130;52.150;5.236;2022-11-04T02:24:23;99998.0;;;11.9;97.82
48892;BME280;50130;52.150;5.236;2022-11-04T02:27:13;99998.0;;;11.89;98.12
48892;BME280;50130;52.150;5.236;2022-11-04T02:29:18;100005.0;;;11.92;97.96
48892;BME280;50130;52.150;5.236;2022-11-04T02:31:27;100007.0;;;11.8;97.98
48892;BME280;50130;52.150;5.236;2022-11-04T02:33:17;100011.0;;;11.82;97.67
48892;BME280;50130;52.150;5.236;2022-11-04T02:35:00;100021.0;;;11.78;98.2
48892;BME280;50130;52.150;5.236;2022-11-04T02:36:45;100023.0;;;11.76;98.39
48892;BME280;50130;52.150;5.236;2022-11-04T02:38:31;100025.0;;;11.87;98.13
48892;BME280;50130;52.150;5.236;2022-11-04T02:40:20;100030.0;;;11.94;97.87
48892;BME280;50130;52.150;5.236;2022-11-04T02:43:54;100034.0;;;11.94;97.69
48892;BME280;50130;52.150;5.236;2022-11-04T02:45:45;100035.0;;;11.95;98.01
48892;BME280;50130;52.150;5.236;2022-11-04T02:47:25;100027.0;;;11.83;98.15
48892;BME280;50130;52.150;5.236;2022-11-04T02:49:09;100028.0;;;11.97;97.72
48892;BME280;50130;52.150;5.236;2022-11-04T02:50:51;100027.0;;;11.91;98.01
48892;BME280;50130;52.150;5.236;2022-11-04T02:54:19;100033.0;;;11.97;97.74
48892;BME280;50130;52.150;5.236;2022-11-04T02:56:02;100033.0;;;12.03;97.11
48892;BME280;50130;52.150;5.236;2022-11-04T02:57:41;100036.0;;;11.86;97.94
48892;BME280;50130;52.150;5.236;2022-11-04T02:59:25;100042.0;;;11.84;98.14
48892;BME280;50130;52.150;5.236;2022-11-04T03:01:15;100044.0;;;11.91;97.73
48892;BME280;50130;52.150;5.236;2022-11-04T03:04:37;100049.0;;;11.92;97.98
48892;BME280;50130;52.150;5.236;2022-11-04T03:06:20;100049.0;;;11.96;97.83
48892;BME280;50130;52.150;5.236;2022-11-04T03:08:01;100053.0;;;11.86;97.69
48892;BME280;50130;52.150;5.236;2022-11-04T03:09:47;100049.0;;;11.81;97.83
48892;BME280;50130;52.150;5.236;2022-11-04T03:11:37;100047.0;;;11.82;98.42
48892;BME280;50130;52.150;5.236;2022-11-04T03:15:01;100049.0;;;11.79;98.12
48892;BME280;50130;52.150;5.236;2022-11-04T03:16:44;100048.0;;;11.83;98.0
48892;BME280;50130;52.150;5.236;2022-11-04T03:18:28;100049.0;;;11.81;98.16
48892;BME280;50130;52.150;5.236;2022-11-04T03:20:13;100043.0;;;11.83;98.13
48892;BME280;50130;52.150;5.236;2022-11-04T03:23:34;100044.0;;;11.68;98.29
48892;BME280;50130;52.150;5.236;2022-11-04T03:25:11;100048.0;;;11.76;97.82
48892;BME280;50130;52.150;5.236;2022-11-04T03:26:57;100052.0;;;11.73;97.5
48892;BME280;50130;52.150;5.236;2022-11-04T03:28:39;100056.0;;;11.76;97.05
48892;BME280;50130;52.150;5.236;2022-11-04T03:32:04;100065.0;;;11.71;96.94
48892;BME280;50130;52.150;5.236;2022-11-04T03:33:46;100064.0;;;11.69;97.16
48892;BME280;50130;52.150;5.236;2022-11-04T03:35:23;100069.0;;;11.68;96.81
48892;BME280;50130;52.150;5.236;2022-11-04T03:37:00;100071.0;;;11.61;96.16
48892;BME280;50130;52.150;5.236;2022-11-04T03:40:14;100076.0;;;11.64;96.22
48892;BME280;50130;52.150;5.236;2022-11-04T03:41:55;100075.0;;;11.51;96.13
48892;BME280;50130;52.150;5.236;2022-11-04T03:43:33;100078.0;;;11.47;96.36
48892;BME280;50130;52.150;5.236;2022-11-04T03:45:12;100077.0;;;11.41;96.35
48892;BME280;50130;52.150;5.236;2022-11-04T03:48:26;100080.0;;;11.4;96.2
48892;BME280;50130;52.150;5.236;2022-11-04T03:50:11;100084.0;;;11.42;95.94
48892;BME280;50130;52.150;5.236;2022-11-04T03:51:49;100085.0;;;11.38;95.83
48892;BME280;50130;52.150;5.236;2022-11-04T03:53:26;100083.0;;;11.31;96.17
48892;BME280;50130;52.150;5.236;2022-11-04T03:57:29;100087.0;;;11.26;96.35
48892;BME280;50130;52.150;5.236;2022-11-04T03:59:58;100092.0;;;11.28;96.04
48892;BME280;50130;52.150;5.236;2022-11-04T04:03:29;100090.0;;;11.23;95.46
48892;BME280;50130;52.150;5.236;2022-11-04T04:05:12;100091.0;;;11.02;96.64
48892;BME280;50130;52.150;5.236;2022-11-04T04:07:00;100095.0;;;11.05;96.42
48892;BME280;50130;52.150;5.236;2022-11-04T04:08:42;100095.0;;;11.16;95.75
48892;BME280;50130;52.150;5.236;2022-11-04T04:10:59;100099.0;;;11.06;96.18
48892;BME280;50130;52.150;5.236;2022-11-04T04:12:44;100098.0;;;11.04;96.22
48892;BME280;50130;52.150;5.236;2022-11-04T04:14:40;100102.0;;;10.91;96.41
48892;BME280;50130;52.150;5.236;2022-11-04T04:18:04;100106.0;;;10.8;96.9
48892;BME280;50130;52.150;5.236;2022-11-04T04:19:48;100109.0;;;10.89;96.93
48892;BME280;50130;52.150;5.236;2022-11-04T04:21:30;100105.0;;;10.77;97.14
48892;BME280;50130;52.150;5.236;2022-11-04T04:29:52;100113.0;;;10.84;97.03
48892;BME280;50130;52.150;5.236;2022-11-04T04:32:03;100120.0;;;10.95;96.26
48892;BME280;50130;52.150;5.236;2022-11-04T04:33:39;100119.0;;;10.75;96.87
48892;BME280;50130;52.150;5.236;2022-11-04T04:35:51;100120.0;;;10.85;96.12
48892;BME280;50130;52.150;5.236;2022-11-04T04:37:30;100122.0;;;10.72;96.18
48892;BME280;50130;52.150;5.236;2022-11-04T04:46:38;100126.0;;;10.63;96.03
48892;BME280;50130;52.150;5.236;2022-11-04T04:48:17;100132.0;;;10.55;96.37
48892;BME280;50130;52.150;5.236;2022-11-04T04:49:56;100130.0;;;10.47;96.66
48892;BME280;50130;52.150;5.236;2022-11-04T04:53:13;100134.0;;;10.44;96.39
48892;BME280;50130;52.150;5.236;2022-11-04T04:54:50;100140.0;;;10.47;96.33
48892;BME280;50130;52.150;5.236;2022-11-04T04:56:26;100142.0;;;10.4;96.02
48892;BME280;50130;52.150;5.236;2022-11-04T04:59:38;100145.0;;;10.38;96.43
48892;BME280;50130;52.150;5.236;2022-11-04T05:01:14;100147.0;;;10.33;96.22
48892;BME280;50130;52.150;5.236;2022-11-04T05:02:51;100150.0;;;10.29;96.6
48892;BME280;50130;52.150;5.236;2022-11-04T05:06:04;100150.0;;;10.21;96.56
48892;BME280;50130;52.150;5.236;2022-11-04T05:07:41;100156.0;;;10.14;96.72
48892;BME280;50130;52.150;5.236;2022-11-04T05:09:17;100156.0;;;10.21;96.78
48892;BME280;50130;52.150;5.236;2022-11-04T05:10:53;100160.0;;;10.29;96.45
48892;BME280;50130;52.150;5.236;2022-11-04T05:15:01;100159.0;;;10.35;96.83
48892;BME280;50130;52.150;5.236;2022-11-04T05:18:13;100165.0;;;10.39;96.93
48892;BME280;50130;52.150;5.236;2022-11-04T05:19:49;100166.0;;;10.28;97.3
48892;BME280;50130;52.150;5.236;2022-11-04T05:21:25;100164.0;;;10.35;97.4
48892;BME280;50130;52.150;5.236;2022-11-04T05:24:37;100153.0;;;10.34;97.67
48892;BME280;50130;52.150;5.236;2022-11-04T05:26:14;100153.0;;;10.36;97.66
48892;BME280;50130;52.150;5.236;2022-11-04T05:27:51;100158.0;;;10.44;97.42
48892;BME280;50130;52.150;5.236;2022-11-04T05:31:04;100152.0;;;10.36;97.67
48892;BME280;50130;52.150;5.236;2022-11-04T05:32:41;100161.0;;;10.36;97.78
48892;BME280;50130;52.150;5.236;2022-11-04T05:35:54;100160.0;;;10.33;97.28
48892;BME280;50130;52.150;5.236;2022-11-04T05:39:06;100166.0;;;10.34;96.84
48892;BME280;50130;52.150;5.236;2022-11-04T05:40:46;100170.0;;;10.4;96.89
48892;BME280;50130;52.150;5.236;2022-11-04T05:42:22;100172.0;;;10.4;96.58
48892;BME280;50130;52.150;5.236;2022-11-04T05:45:36;100175.0;;;10.29;96.66
48892;BME280;50130;52.150;5.236;2022-11-04T05:47:12;100177.0;;;10.19;96.96
48892;BME280;50130;52.150;5.236;2022-11-04T05:48:48;100183.0;;;10.3;96.53
48892;BME280;50130;52.150;5.236;2022-11-04T05:52:04;100189.0;;;10.43;96.19
48892;BME280;50130;52.150;5.236;2022-11-04T05:53:40;100192.0;;;10.24;96.4
48892;BME280;50130;52.150;5.236;2022-11-04T05:55:16;100198.0;;;10.16;96.51
48892;BME280;50130;52.150;5.236;2022-11-04T05:56:52;100197.0;;;10.13;96.37
48892;BME280;50130;52.150;5.236;2022-11-04T06:00:06;100200.0;;;10.1;96.19
48892;BME280;50130;52.150;5.236;2022-11-04T06:01:44;100199.0;;;10.18;95.98
48892;BME280;50130;52.150;5.236;2022-11-04T06:03:21;100198.0;;;10.1;96.02
48892;BME280;50130;52.150;5.236;2022-11-04T06:06:34;100202.0;;;10.02;95.92
48892;BME280;50130;52.150;5.236;2022-11-04T06:08:12;100205.0;;;10.06;95.86
48892;BME280;50130;52.150;5.236;2022-11-04T06:09:48;100210.0;;;9.91;95.69
48892;BME280;50130;52.150;5.236;2022-11-04T06:13:02;100213.0;;;9.86;95.52
48892;BME280;50130;52.150;5.236;2022-11-04T06:14:39;100216.0;;;9.81;95.97
48892;BME280;50130;52.150;5.236;2022-11-04T06:16:16;100222.0;;;9.76;96.23
48892;BME280;50130;52.150;5.236;2022-11-04T06:17:52;100222.0;;;9.66;96.72
48892;BME280;50130;52.150;5.236;2022-11-04T06:21:09;100224.0;;;9.71;96.46
48892;BME280;50130;52.150;5.236;2022-11-04T06:22:57;100225.0;;;9.72;96.64
48892;BME280;50130;52.150;5.236;2022-11-04T06:24:33;100226.0;;;9.72;96.47
48892;BME280;50130;52.150;5.236;2022-11-04T06:26:10;100224.0;;;9.72;96.56
48892;BME280;50130;52.150;5.236;2022-11-04T06:29:24;100224.0;;;9.74;96.32
48892;BME280;50130;52.150;5.236;2022-11-04T06:31:02;100222.0;;;9.56;96.7
48892;BME280;50130;52.150;5.236;2022-11-04T06:32:39;100223.0;;;9.66;96.57
48892;BME280;50130;52.150;5.236;2022-11-04T06:35:51;100228.0;;;9.67;96.74
48892;BME280;50130;52.150;5.236;2022-11-04T06:37:32;100230.0;;;9.73;96.72
48892;BME280;50130;52.150;5.236;2022-11-04T06:39:08;100231.0;;;9.58;97.21
48892;BME280;50130;52.150;5.236;2022-11-04T06:40:44;100232.0;;;9.69;96.76
48892;BME280;50130;52.150;5.236;2022-11-04T06:43:56;100236.0;;;9.69;96.75
48892;BME280;50130;52.150;5.236;2022-11-04T06:45:32;100237.0;;;9.77;96.5
48892;BME280;50130;52.150;5.236;2022-11-04T06:47:09;100238.0;;;9.72;96.33
48892;BME280;50130;52.150;5.236;2022-11-04T06:50:21;100239.0;;;9.76;96.31
48892;BME280;50130;52.150;5.236;2022-11-04T06:51:57;100237.0;;;9.65;96.2
48892;BME280;50130;52.150;5.236;2022-11-04T06:53:33;100236.0;;;9.64;96.39
48892;BME280;50130;52.150;5.236;2022-11-04T06:56:46;100243.0;;;9.64;96.44
48892;BME280;50130;52.150;5.236;2022-11-04T06:58:23;100247.0;;;9.56;96.9
48892;BME280;50130;52.150;5.236;2022-11-04T06:59:59;100255.0;;;9.6;97.0
48892;BME280;50130;52.150;5.236;2022-11-04T07:03:12;100262.0;;;9.53;96.74
48892;BME280;50130;52.150;5.236;2022-11-04T07:04:48;100265.0;;;9.64;96.51
48892;BME280;50130;52.150;5.236;2022-11-04T07:06:25;100266.0;;;9.55;96.92
48892;BME280;50130;52.150;5.236;2022-11-04T07:08:01;100264.0;;;9.56;96.64
48892;BME280;50130;52.150;5.236;2022-11-04T07:11:14;100265.0;;;9.58;96.64
48892;BME280;50130;52.150;5.236;2022-11-04T07:12:54;100270.0;;;9.56;96.7
48892;BME280;50130;52.150;5.236;2022-11-04T07:14:30;100269.0;;;9.6;96.9
48892;BME280;50130;52.150;5.236;2022-11-04T07:17:44;100271.0;;;9.59;97.12
48892;BME280;50130;52.150;5.236;2022-11-04T07:19:20;100273.0;;;9.61;97.07
48892;BME280;50130;52.150;5.236;2022-11-04T07:20:56;100273.0;;;9.72;96.73
48892;BME280;50130;52.150;5.236;2022-11-04T07:24:09;100277.0;;;9.68;96.74
48892;BME280;50130;52.150;5.236;2022-11-04T07:25:45;100280.0;;;9.58;96.74
48892;BME280;50130;52.150;5.236;2022-11-04T07:27:22;100283.0;;;9.53;96.5
48892;BME280;50130;52.150;5.236;2022-11-04T07:29:00;100282.0;;;9.39;96.94
48892;BME280;50130;52.150;5.236;2022-11-04T07:32:13;100281.0;;;9.49;96.85
48892;BME280;50130;52.150;5.236;2022-11-04T07:33:50;100280.0;;;9.5;97.11
48892;BME280;50130;52.150;5.236;2022-11-04T07:35:26;100280.0;;;9.49;96.97
48892;BME280;50130;52.150;5.236;2022-11-04T07:38:39;100284.0;;;9.56;96.69
48892;BME280;50130;52.150;5.236;2022-11-04T07:40:15;100289.0;;;9.59;96.6
48892;BME280;50130;52.150;5.236;2022-11-04T07:41:52;100293.0;;;9.42;96.86
48892;BME280;50130;52.150;5.236;2022-11-04T07:45:06;100298.0;;;9.39;96.73
48892;BME280;50130;52.150;5.236;2022-11-04T07:46:43;100301.0;;;9.35;97.11
48892;BME280;50130;52.150;5.236;2022-11-04T07:48:19;100305.0;;;9.33;97.3
48892;BME280;50130;52.150;5.236;2022-11-04T07:49:55;100311.0;;;9.42;97.34
48892;BME280;50130;52.150;5.236;2022-11-04T07:53:10;100312.0;;;9.44;96.98
48892;BME280;50130;52.150;5.236;2022-11-04T07:54:47;100312.0;;;9.36;97.05
48892;BME280;50130;52.150;5.236;2022-11-04T07:56:24;100317.0;;;9.38;97.62
48892;BME280;50130;52.150;5.236;2022-11-04T07:59:38;100319.0;;;9.36;98.02
48892;BME280;50130;52.150;5.236;2022-11-04T08:01:17;100322.0;;;9.44;97.88
48892;BME280;50130;52.150;5.236;2022-11-04T08:02:58;100326.0;;;9.55;97.81
48892;BME280;50130;52.150;5.236;2022-11-04T08:04:34;100320.0;;;9.58;97.62
48892;BME280;50130;52.150;5.236;2022-11-04T08:07:48;100322.0;;;9.63;97.7
48892;BME280;50130;52.150;5.236;2022-11-04T08:09:24;100323.0;;;9.66;97.83
48892;BME280;50130;52.150;5.236;2022-11-04T08:11:03;100324.0;;;9.64;97.72
48892;BME280;50130;52.150;5.236;2022-11-04T08:14:17;100321.0;;;9.77;97.65
48892;BME280;50130;52.150;5.236;2022-11-04T08:15:53;100326.0;;;9.75;98.11
48892;BME280;50130;52.150;5.236;2022-11-04T08:17:31;100330.0;;;9.81;97.99
48892;BME280;50130;52.150;5.236;2022-11-04T08:19:08;100335.0;;;9.8;97.93
48892;BME280;50130;52.150;5.236;2022-11-04T08:22:23;100337.0;;;9.75;98.19
48892;BME280;50130;52.150;5.236;2022-11-04T08:24:02;100342.0;;;9.81;98.67
48892;BME280;50130;52.150;5.236;2022-11-04T08:25:39;100343.0;;;9.88;98.04
48892;BME280;50130;52.150;5.236;2022-11-04T08:28:51;100345.0;;;9.85;98.36
48892;BME280;50130;52.150;5.236;2022-11-04T08:30:27;100347.0;;;9.83;98.74
48892;BME280;50130;52.150;5.236;2022-11-04T08:32:04;100349.0;;;9.94;98.53
48892;BME280;50130;52.150;5.236;2022-11-04T08:35:19;100348.0;;;9.99;98.75
48892;BME280;50130;52.150;5.236;2022-11-04T08:36:56;100352.0;;;10.05;99.19
48892;BME280;50130;52.150;5.236;2022-11-04T08:38:35;100362.0;;;10.17;99.78
48892;BME280;50130;52.150;5.236;2022-11-04T08:40:11;100367.0;;;10.17;100.0
48892;BME280;50130;52.150;5.236;2022-11-04T08:43:26;100376.0;;;10.31;99.93
48892;BME280;50130;52.150;5.236;2022-11-04T08:45:03;100376.0;;;10.36;100.0
48892;BME280;50130;52.150;5.236;2022-11-04T08:46:42;100371.0;;;10.39;99.95
48892;BME280;50130;52.150;5.236;2022-11-04T08:49:55;100373.0;;;10.46;100.0
48892;BME280;50130;52.150;5.236;2022-11-04T08:51:33;100380.0;;;10.61;100.0
48892;BME280;50130;52.150;5.236;2022-11-04T08:53:11;100380.0;;;10.62;99.99
48892;BME280;50130;52.150;5.236;2022-11-04T08:54:47;100386.0;;;10.71;100.0
48892;BME280;50130;52.150;5.236;2022-11-04T08:58:03;100385.0;;;10.71;100.0
48892;BME280;50130;52.150;5.236;2022-11-04T08:59:39;100389.0;;;11.02;99.38
48892;BME280;50130;52.150;5.236;2022-11-04T09:01:16;100390.0;;;10.91;99.7
48892;BME280;50130;52.150;5.236;2022-11-04T09:04:30;100393.0;;;10.96;99.87
48892;BME280;50130;52.150;5.236;2022-11-04T09:06:09;100399.0;;;11.01;100.0
48892;BME280;50130;52.150;5.236;2022-11-04T09:07:48;100393.0;;;10.95;100.0
48892;BME280;50130;52.150;5.236;2022-11-04T09:09:24;100400.0;;;11.04;100.0
48892;BME280;50130;52.150;5.236;2022-11-04T09:12:36;100401.0;;;11.15;100.0
48892;BME280;50130;52.150;5.236;2022-11-04T09:14:13;100402.0;;;11.17;100.0
48892;BME280;50130;52.150;5.236;2022-11-04T09:15:49;100407.0;;;11.18;100.0
48892;BME280;50130;52.150;5.236;2022-11-04T09:19:02;100409.0;;;11.3;100.0
48892;BME280;50130;52.150;5.236;2022-11-04T09:20:40;100411.0;;;11.46;100.0
48892;BME280;50130;52.150;5.236;2022-11-04T09:22:17;100414.0;;;11.63;100.0
48892;BME280;50130;52.150;5.236;2022-11-04T09:23:37;100414.0;;;11.63;100.0
48892;BME280;50130;52.150;5.236;2022-11-04T09:27:03;100414.0;;;11.76;100.0
48892;BME280;50130;52.150;5.236;2022-11-04T09:38:08;100431.0;;;12.27;100.0
48892;BME280;50130;52.150;5.236;2022-11-04T09:39:58;100439.0;;;12.2;100.0
48892;BME280;50130;52.150;5.236;2022-11-04T09:41:48;100446.0;;;12.35;99.92
48892;BME280;50130;52.150;5.236;2022-11-04T09:43:41;100443.0;;;12.41;98.76
48892;BME280;50130;52.150;5.236;2022-11-04T09:45:26;100445.0;;;12.38;98.12
48892;BME280;50130;52.150;5.236;2022-11-04T09:47:07;100444.0;;;12.43;97.82
48892;BME280;50130;52.150;5.236;2022-11-04T09:50:28;100450.0;;;12.57;97.22
48892;BME280;50130;52.150;5.236;2022-11-04T09:52:15;100450.0;;;12.45;97.45
48892;BME280;50130;52.150;5.236;2022-11-04T09:53:56;100451.0;;;12.41;97.56
48892;BME280;50130;52.150;5.236;2022-11-04T09:55:37;100450.0;;;12.45;98.0
48892;BME280;50130;52.150;5.236;2022-11-04T09:58:14;100456.0;;;12.54;97.1
48892;BME280;50130;52.150;5.236;2022-11-04T09:58:54;100456.0;;;12.54;97.1
48892;BME280;50130;52.150;5.236;2022-11-04T09:59:51;100455.0;;;12.56;97.34
48892;BME280;50130;52.150;5.236;2022-11-04T10:00:34;100455.0;;;12.56;97.34
48892;BME280;50130;52.150;5.236;2022-11-04T10:02:24;100458.0;;;12.45;96.07
48892;BME280;50130;52.150;5.236;2022-11-04T10:03:22;100458.0;;;12.45;96.07
48892;BME280;50130;52.150;5.236;2022-11-04T10:04:13;100464.0;;;12.48;96.26
48892;BME280;50130;52.150;5.236;2022-11-04T10:05:16;100464.0;;;12.48;96.26
48892;BME280;50130;52.150;5.236;2022-11-04T10:06:09;100472.0;;;12.5;96.7
48892;BME280;50130;52.150;5.236;2022-11-04T10:07:05;100472.0;;;12.5;96.7
48892;BME280;50130;52.150;5.236;2022-11-04T10:09:02;100477.0;;;12.54;96.41
48892;BME280;50130;52.150;5.236;2022-11-04T10:11:44;100483.0;;;12.55;97.5
48892;BME280;50130;52.150;5.236;2022-11-04T10:13:29;100487.0;;;12.55;96.66
48892;BME280;50130;52.150;5.236;2022-11-04T10:15:28;100491.0;;;12.6;96.4
48892;BME280;50130;52.150;5.236;2022-11-04T10:16:25;100496.0;;;12.52;97.3
48892;BME280;50130;52.150;5.236;2022-11-04T10:17:29;100496.0;;;12.52;97.3
48892;BME280;50130;52.150;5.236;2022-11-04T10:19:24;100505.0;;;12.63;96.29
48892;BME280;50130;52.150;5.236;2022-11-04T10:20:21;100505.0;;;12.63;96.29
48892;BME280;50130;52.150;5.236;2022-11-04T10:21:16;100505.0;;;12.58;96.36
48892;BME280;50130;52.150;5.236;2022-11-04T10:22:10;100505.0;;;12.58;96.36
48892;BME280;50130;52.150;5.236;2022-11-04T10:23:01;100510.0;;;12.55;97.49
48892;BME280;50130;52.150;5.236;2022-11-04T10:24:04;100510.0;;;12.55;97.49
48892;BME280;50130;52.150;5.236;2022-11-04T10:24:51;100508.0;;;12.77;96.87
48892;BME280;50130;52.150;5.236;2022-11-04T10:25:46;100508.0;;;12.77;96.87
48892;BME280;50130;52.150;5.236;2022-11-04T10:27:26;100517.0;;;12.84;97.21
48892;BME280;50130;52.150;5.236;2022-11-04T10:28:20;100517.0;;;12.84;97.21
48892;BME280;50130;52.150;5.236;2022-11-04T10:29:05;100520.0;;;12.9;96.89
48892;BME280;50130;52.150;5.236;2022-11-04T10:30:02;100520.0;;;12.9;96.89
48892;BME280;50130;52.150;5.236;2022-11-04T10:31:42;100521.0;;;12.95;96.27
48892;BME280;50130;52.150;5.236;2022-11-04T10:32:36;100521.0;;;12.95;96.27
48892;BME280;50130;52.150;5.236;2022-11-04T10:33:25;100525.0;;;13.03;96.21
48892;BME280;50130;52.150;5.236;2022-11-04T10:34:24;100525.0;;;13.03;96.21
48892;BME280;50130;52.150;5.236;2022-11-04T10:35:14;100530.0;;;12.98;96.37
48892;BME280;50130;52.150;5.236;2022-11-04T10:36:05;100530.0;;;12.98;96.37
48892;BME280;50130;52.150;5.236;2022-11-04T10:37:42;100532.0;;;13.09;96.19
48892;BME280;50130;52.150;5.236;2022-11-04T10:38:36;100532.0;;;13.09;96.19
48892;BME280;50130;52.150;5.236;2022-11-04T10:39:25;100536.0;;;13.17;94.34
48892;BME280;50130;52.150;5.236;2022-11-04T10:40:20;100536.0;;;13.17;94.34
48892;BME280;50130;52.150;5.236;2022-11-04T10:41:59;100533.0;;;13.24;93.37
48892;BME280;50130;52.150;5.236;2022-11-04T10:42:57;100533.0;;;13.24;93.37
48892;BME280;50130;52.150;5.236;2022-11-04T10:43:37;100528.0;;;13.22;94.07
48892;BME280;50130;52.150;5.236;2022-11-04T10:44:36;100528.0;;;13.22;94.07
48892;BME280;50130;52.150;5.236;2022-11-04T10:46:24;100530.0;;;13.29;93.64
48892;BME280;50130;52.150;5.236;2022-11-04T10:46:57;100530.0;;;13.29;93.64
48892;BME280;50130;52.150;5.236;2022-11-04T10:48:07;100528.0;;;13.36;92.44
48892;BME280;50130;52.150;5.236;2022-11-04T10:48:42;100528.0;;;13.36;92.44
48892;BME280;50130;52.150;5.236;2022-11-04T10:49:56;100527.0;;;13.33;93.99
48892;BME280;50130;52.150;5.236;2022-11-04T10:50:27;100527.0;;;13.33;93.99
48892;BME280;50130;52.150;5.236;2022-11-04T10:52:09;100530.0;;;13.33;94.27
48892;BME280;50130;52.150;5.236;2022-11-04T10:53:14;100530.0;;;13.33;94.27
48892;BME280;50130;52.150;5.236;2022-11-04T10:54:54;100537.0;;;13.38;94.2
48892;BME280;50130;52.150;5.236;2022-11-04T10:55:33;100537.0;;;13.38;94.2
48892;BME280;50130;52.150;5.236;2022-11-04T10:56:35;100540.0;;;13.44;93.08
48892;BME280;50130;52.150;5.236;2022-11-04T10:57:18;100540.0;;;13.44;93.08
48892;BME280;50130;52.150;5.236;2022-11-04T10:58:17;100541.0;;;13.44;92.19
48892;BME280;50130;52.150;5.236;2022-11-04T10:58:56;100541.0;;;13.44;92.19